createdAt,value
2023-01-07T00:02:22.273Z,36.83
2023-01-07T00:04:47.241Z,36.95
2023-01-07T00:07:11.950Z,34.72
2023-01-07T00:09:35.702Z,30.63
2023-01-07T00:11:59.277Z,29.43
2023-01-07T00:14:22.801Z,33.80
2023-01-07T00:16:46.799Z,37.00
2023-01-07T00:19:14.895Z,32.37
2023-01-07T00:21:39.860Z,34.67
2023-01-07T00:24:06.140Z,33.87
2023-01-07T00:26:33.352Z,30.70
2023-01-07T00:28:56.876Z,36.50
2023-01-07T00:31:23.443Z,34.40
2023-01-07T00:33:51.876Z,28.27
2023-01-07T00:36:15.593Z,34.67
2023-01-07T00:38:40.711Z,30.70
2023-01-07T00:41:04.496Z,42.47
2023-01-07T00:43:29.548Z,27.00
2023-01-07T00:45:53.151Z,32.07
2023-01-07T00:48:18.445Z,28.42
2023-01-07T00:50:42.414Z,32.17
2023-01-07T00:53:06.407Z,29.93
2023-01-07T00:55:31.934Z,32.53
2023-01-07T00:57:56.326Z,34.53
2023-01-07T01:00:22.647Z,35.23
2023-01-07T01:02:47.144Z,53.67
2023-01-07T01:05:11.490Z,36.43
2023-01-07T01:07:35.903Z,30.87
2023-01-07T01:09:59.547Z,32.23
2023-01-07T01:12:24.493Z,36.60
2023-01-07T01:14:48.214Z,34.63
2023-01-07T01:17:11.782Z,30.93
2023-01-07T01:19:35.449Z,56.17
2023-01-07T01:21:58.996Z,31.67
2023-01-07T01:24:22.659Z,43.53
2023-01-07T01:26:46.179Z,31.27
2023-01-07T01:29:11.238Z,34.43
2023-01-07T01:31:35.365Z,35.47
2023-01-07T01:34:00.044Z,30.03
2023-01-07T01:36:24.240Z,30.83
2023-01-07T01:38:49.635Z,25.77
2023-01-07T01:41:16.717Z,29.17
2023-01-07T01:43:44.476Z,33.17
2023-01-07T01:46:16.551Z,29.20
2023-01-07T01:48:48.097Z,37.23
2023-01-07T01:51:12.800Z,30.60
2023-01-07T01:53:37.379Z,35.57
2023-01-07T01:56:05.973Z,37.00
2023-01-07T01:58:46.318Z,30.60
2023-01-07T02:01:11.681Z,33.73
2023-01-07T02:03:37.941Z,29.43
2023-01-07T02:06:02.366Z,29.87
2023-01-07T02:08:26.017Z,32.23
2023-01-07T02:11:30.590Z,30.17
2023-01-07T02:14:13.475Z,30.50
2023-01-07T02:16:45.467Z,27.00
2023-01-07T02:19:34.562Z,33.73
2023-01-07T02:22:07.795Z,44.73
2023-01-07T02:25:01.128Z,38.87
2023-01-07T02:28:00.515Z,42.73
2023-01-07T02:30:52.336Z,31.80
2023-01-07T02:33:42.545Z,33.80
2023-01-07T02:36:40.370Z,31.17
2023-01-07T02:39:25.830Z,24.37
2023-01-07T02:41:58.773Z,34.13
2023-01-07T02:44:33.549Z,29.90
2023-01-07T02:47:05.286Z,27.70
2023-01-07T02:49:30.276Z,31.13
2023-01-07T02:51:54.739Z,33.20
2023-01-07T02:54:23.814Z,43.47
2023-01-07T02:57:15.759Z,33.43
2023-01-07T03:00:04.008Z,30.67
2023-01-07T03:02:47.580Z,33.53
2023-01-07T03:05:29.277Z,35.90
2023-01-07T03:08:09.027Z,30.67
2023-01-07T03:10:41.806Z,32.90
2023-01-07T03:13:09.646Z,33.07
2023-01-07T03:15:41.604Z,30.43
2023-01-07T03:18:10.306Z,41.57
2023-01-07T03:20:39.011Z,31.20
2023-01-07T03:23:07.362Z,34.30
2023-01-07T03:25:34.366Z,32.40
2023-01-07T03:28:00.578Z,31.13
2023-01-07T03:30:27.816Z,34.23
2023-01-07T03:32:57.884Z,32.60
2023-01-07T03:35:23.206Z,36.90
2023-01-07T03:37:50.252Z,30.93
2023-01-07T03:40:14.207Z,30.70
2023-01-07T03:42:40.583Z,41.27
2023-01-07T03:45:13.430Z,27.53
2023-01-07T03:47:40.962Z,33.27
2023-01-07T03:50:04.886Z,51.07
2023-01-07T03:52:28.493Z,35.63
2023-01-07T03:54:53.475Z,37.23
2023-01-07T03:57:17.167Z,31.43
2023-01-07T03:59:40.828Z,31.67
2023-01-07T04:02:04.610Z,33.97
2023-01-07T04:04:28.658Z,39.47
2023-01-07T04:06:52.499Z,28.13
2023-01-07T04:09:18.822Z,28.37
2023-01-07T04:11:44.346Z,32.30
2023-01-07T04:14:08.362Z,34.60
2023-01-07T04:16:31.990Z,36.17
2023-01-07T04:18:56.042Z,41.33
2023-01-07T04:21:19.851Z,32.73
2023-01-07T04:23:43.377Z,27.43
2023-01-07T04:26:07.550Z,34.13
2023-01-07T04:28:32.501Z,25.90
2023-01-07T04:30:56.375Z,25.77
2023-01-07T04:33:20.433Z,27.37
2023-01-07T04:35:48.048Z,36.00
2023-01-07T04:38:12.636Z,26.43
2023-01-07T04:40:36.249Z,36.23
2023-01-07T04:43:00.432Z,29.57
2023-01-07T04:45:26.395Z,31.63
2023-01-07T04:47:49.953Z,25.77
2023-01-07T04:50:14.738Z,28.03
2023-01-07T04:52:38.343Z,29.20
2023-01-07T04:55:02.614Z,43.97
2023-01-07T04:57:26.695Z,31.67
2023-01-07T04:59:50.730Z,39.70
2023-01-07T05:02:15.744Z,35.30
2023-01-07T05:04:39.474Z,38.00
2023-01-07T05:07:03.655Z,48.83
2023-01-07T05:09:27.276Z,41.60
2023-01-07T05:11:50.931Z,48.77
2023-01-07T05:14:15.106Z,35.40
2023-01-07T05:16:39.956Z,33.53
2023-01-07T05:19:08.262Z,39.13
2023-01-07T05:21:35.635Z,57.73
2023-01-07T05:23:59.343Z,51.63
2023-01-07T05:26:23.804Z,58.63
2023-01-07T05:28:47.358Z,46.13
2023-01-07T05:31:11.418Z,38.20
2023-01-07T05:33:35.443Z,39.07
2023-01-07T05:36:00.926Z,54.70
2023-01-07T05:38:24.926Z,50.23
2023-01-07T05:40:50.213Z,62.57
2023-01-07T05:43:18.343Z,49.30
2023-01-07T05:45:44.436Z,48.67
2023-01-07T05:48:08.363Z,54.10
2023-01-07T05:50:31.871Z,42.40
2023-01-07T05:52:58.160Z,41.97
2023-01-07T05:55:21.757Z,49.80
2023-01-07T05:57:45.356Z,44.77
2023-01-07T06:00:11.111Z,45.13
2023-01-07T06:02:37.791Z,57.77
2023-01-07T06:05:01.387Z,45.60
2023-01-07T06:07:25.042Z,58.70
2023-01-07T06:09:50.005Z,63.20
2023-01-07T06:12:13.551Z,68.37
2023-01-07T06:14:37.059Z,44.63
2023-01-07T06:17:00.746Z,57.13
2023-01-07T06:19:24.247Z,55.97
2023-01-07T06:21:47.809Z,65.40
2023-01-07T06:24:12.442Z,60.50
2023-01-07T06:26:37.617Z,81.37
2023-01-07T06:29:01.138Z,55.07
2023-01-07T06:31:24.754Z,75.97
2023-01-07T06:33:48.385Z,63.43
2023-01-07T06:36:12.215Z,63.37
2023-01-07T06:38:36.083Z,68.40
2023-01-07T06:40:59.812Z,66.57
2023-01-07T06:43:24.727Z,67.27
2023-01-07T06:45:48.539Z,72.23
2023-01-07T06:48:12.084Z,85.55
2023-01-07T06:50:35.641Z,67.47
2023-01-07T06:52:59.167Z,64.65
2023-01-07T06:55:22.750Z,114.13
2023-01-07T06:57:46.394Z,75.53
2023-01-07T07:00:13.412Z,76.13
2023-01-07T07:02:37.035Z,80.15
2023-01-07T07:05:00.674Z,72.45
2023-01-07T07:07:25.522Z,80.28
2023-01-07T07:09:51.190Z,76.05
2023-01-07T07:12:15.087Z,104.05
2023-01-07T07:14:38.696Z,71.90
2023-01-07T07:17:03.832Z,76.95
2023-01-07T07:19:27.424Z,75.15
2023-01-07T07:21:50.943Z,72.00
2023-01-07T07:24:14.754Z,57.40
2023-01-07T07:26:38.252Z,81.93
2023-01-07T07:29:01.800Z,69.55
2023-01-07T07:31:25.447Z,70.40
2023-01-07T07:33:50.462Z,64.55
2023-01-07T07:36:13.983Z,58.30
2023-01-07T07:38:37.836Z,72.30
2023-01-07T07:41:02.635Z,66.88
2023-01-07T07:43:26.192Z,65.00
2023-01-07T07:45:49.753Z,78.57
2023-01-07T07:48:16.493Z,61.03
2023-01-07T07:50:41.449Z,66.45
2023-01-07T07:53:05.770Z,71.93
2023-01-07T07:55:29.547Z,68.43
2023-01-07T07:57:55.277Z,65.18
2023-01-07T08:00:19.168Z,59.55
2023-01-07T08:02:42.776Z,72.57
2023-01-07T08:05:08.206Z,52.92
2023-01-07T08:07:33.930Z,60.03
2023-01-07T08:09:58.018Z,59.28
2023-01-07T08:12:21.566Z,57.70
2023-01-07T08:14:45.074Z,52.65
2023-01-07T08:17:08.690Z,51.22
2023-01-07T08:19:32.238Z,58.10
2023-01-07T08:21:55.857Z,53.58
2023-01-07T08:24:20.837Z,47.55
2023-01-07T08:26:44.424Z,50.33
2023-01-07T08:29:08.898Z,42.00
2023-01-07T08:31:32.554Z,49.35
2023-01-07T08:33:56.120Z,49.42
2023-01-07T08:36:23.629Z,41.63
2023-01-07T08:38:47.317Z,46.55
2023-01-07T08:41:12.335Z,50.25
2023-01-07T08:43:36.117Z,56.83
2023-01-07T08:45:59.656Z,44.13
2023-01-07T08:48:23.448Z,56.55
2023-01-07T08:50:52.152Z,40.10
2023-01-07T08:53:15.662Z,66.90
2023-01-07T08:55:39.258Z,57.13
2023-01-07T08:58:04.169Z,70.15
2023-01-07T09:00:28.183Z,41.63
2023-01-07T09:02:52.042Z,46.80
2023-01-07T09:05:15.683Z,42.33
2023-01-07T09:07:39.705Z,39.53
2023-01-07T09:10:03.804Z,41.22
2023-01-07T09:12:27.344Z,41.67
2023-01-07T09:14:52.259Z,44.90
2023-01-07T09:17:15.827Z,42.83
2023-01-07T09:19:39.437Z,35.33
2023-01-07T09:22:02.974Z,40.20
2023-01-07T09:24:26.653Z,32.90
2023-01-07T09:26:50.188Z,70.85
2023-01-07T09:29:13.938Z,31.98
2023-01-07T09:31:38.856Z,41.72
2023-01-07T09:34:02.552Z,26.55
2023-01-07T09:36:27.054Z,26.33
2023-01-07T09:38:50.657Z,32.25
2023-01-07T09:41:28.680Z,31.33
2023-01-07T09:44:01.901Z,28.25
2023-01-07T09:46:29.206Z,26.60
2023-01-07T09:48:59.309Z,29.85
2023-01-07T09:51:28.877Z,25.48
2023-01-07T09:53:55.438Z,27.70
2023-01-07T09:56:25.293Z,25.23
2023-01-07T09:58:49.757Z,23.30
2023-01-07T10:01:26.887Z,19.52
2023-01-07T10:04:08.981Z,21.00
2023-01-07T10:06:43.917Z,19.73
2023-01-07T10:09:19.676Z,18.08
2023-01-07T10:11:55.492Z,20.05
2023-01-07T10:14:51.104Z,17.08
2023-01-07T10:17:31.274Z,16.38
2023-01-07T10:20:03.667Z,16.77
2023-01-07T10:22:32.391Z,16.85
2023-01-07T10:25:01.549Z,15.85
2023-01-07T10:27:33.966Z,12.57
2023-01-07T10:30:03.250Z,14.25
2023-01-07T10:32:33.926Z,13.23
2023-01-07T10:35:01.578Z,14.88
2023-01-07T10:37:31.542Z,11.18
2023-01-07T10:40:16.582Z,11.73
2023-01-07T10:42:45.904Z,11.93
2023-01-07T10:45:50.189Z,10.38
2023-01-07T10:48:40.951Z,12.32
2023-01-07T10:51:23.405Z,9.02
2023-01-07T10:54:00.467Z,9.80
2023-01-07T10:56:30.759Z,11.68
2023-01-07T10:58:54.371Z,9.77
2023-01-07T11:01:26.191Z,9.32
2023-01-07T11:03:52.296Z,7.82
2023-01-07T11:06:24.557Z,9.95
2023-01-07T11:08:50.104Z,7.43
2023-01-07T11:11:17.655Z,7.75
2023-01-07T11:13:44.535Z,8.80
2023-01-07T11:16:12.525Z,10.90
2023-01-07T11:18:45.537Z,8.85
2023-01-07T11:21:09.244Z,7.57
2023-01-07T11:23:54.210Z,6.15
2023-01-07T11:26:24.701Z,7.00
2023-01-07T11:28:55.087Z,8.48
2023-01-07T11:31:19.429Z,6.97
2023-01-07T11:34:01.934Z,7.65
2023-01-07T11:36:41.999Z,6.07
2023-01-07T11:39:20.205Z,7.45
2023-01-07T11:41:55.644Z,6.30
2023-01-07T11:44:19.229Z,7.32
2023-01-07T11:46:45.733Z,8.45
2023-01-07T11:49:25.390Z,5.75
2023-01-07T11:51:49.767Z,6.45
2023-01-07T11:54:22.815Z,6.45
2023-01-07T11:56:46.415Z,7.13
2023-01-07T11:59:28.604Z,4.93
2023-01-07T12:01:54.513Z,8.00
2023-01-07T12:04:23.988Z,5.72
2023-01-07T12:06:50.335Z,5.47
2023-01-07T12:09:25.691Z,6.45
2023-01-07T12:11:49.603Z,5.40
2023-01-07T12:14:27.512Z,5.63
2023-01-07T12:16:52.172Z,5.18
2023-01-07T12:19:32.884Z,6.45
2023-01-07T12:22:12.794Z,5.43
2023-01-07T12:25:06.931Z,6.22
2023-01-07T12:27:43.622Z,5.35
2023-01-07T12:30:36.434Z,3.72
2023-01-07T12:33:16.402Z,4.57
2023-01-07T12:35:43.743Z,4.38
2023-01-07T12:38:15.289Z,3.75
2023-01-07T12:40:43.643Z,3.20
2023-01-07T12:43:15.425Z,5.80
2023-01-07T12:45:45.867Z,2.55
2023-01-07T12:48:20.015Z,3.53
2023-01-07T12:50:48.479Z,3.63
2023-01-07T12:53:18.278Z,2.83
2023-01-07T12:55:47.876Z,6.47
2023-01-07T12:58:19.185Z,5.05
2023-01-07T13:00:49.516Z,3.70
2023-01-07T13:03:31.703Z,2.97
2023-01-07T13:06:01.914Z,3.80
2023-01-07T13:08:36.220Z,3.40
2023-01-07T13:11:06.622Z,3.40
2023-01-07T13:13:38.853Z,2.92
2023-01-07T13:16:02.582Z,3.13
2023-01-07T13:18:26.155Z,2.63
2023-01-07T13:21:01.459Z,3.60
2023-01-07T13:23:37.512Z,2.33
2023-01-07T13:26:21.229Z,4.35
2023-01-07T13:29:22.559Z,2.95
2023-01-07T13:32:19.498Z,4.28
2023-01-07T13:34:58.865Z,3.15
2023-01-07T13:37:44.535Z,4.75
2023-01-07T13:40:25.858Z,2.45
2023-01-07T13:42:56.563Z,3.53
2023-01-07T13:45:24.250Z,2.75
2023-01-07T13:47:51.288Z,2.95
2023-01-07T13:50:32.812Z,3.00
2023-01-07T13:53:03.064Z,3.78
2023-01-07T13:55:35.853Z,2.70
2023-01-07T13:58:02.799Z,2.83
2023-01-07T14:01:02.031Z,3.75
2023-01-07T14:03:50.639Z,3.63
2023-01-07T14:06:47.452Z,3.75
2023-01-07T14:09:25.657Z,3.70
2023-01-07T14:12:22.921Z,3.05
2023-01-07T14:15:13.844Z,4.53
2023-01-07T14:17:48.204Z,3.10
2023-01-07T14:20:20.267Z,3.85
2023-01-07T14:22:53.161Z,5.22
2023-01-07T14:25:55.547Z,5.18
2023-01-07T14:29:02.705Z,4.60
2023-01-07T14:31:30.064Z,3.45
2023-01-07T14:33:58.198Z,5.53
2023-01-07T14:36:22.259Z,4.78
2023-01-07T14:39:01.390Z,4.40
2023-01-07T14:41:25.242Z,4.43
2023-01-07T14:44:06.376Z,8.77
2023-01-07T14:46:49.691Z,3.80
2023-01-07T14:49:33.188Z,5.68
2023-01-07T14:52:04.422Z,3.83
2023-01-07T14:55:04.637Z,4.38
2023-01-07T14:57:41.297Z,4.72
2023-01-07T15:00:42.386Z,5.03
2023-01-07T15:03:40.740Z,4.95
2023-01-07T15:06:28.892Z,5.50
2023-01-07T15:09:14.133Z,5.38
2023-01-07T15:11:57.163Z,5.32
2023-01-07T15:14:49.296Z,4.90
2023-01-07T15:17:16.341Z,6.90
2023-01-07T15:19:42.201Z,4.10
2023-01-07T15:22:22.694Z,6.13
2023-01-07T15:24:53.155Z,5.95
2023-01-07T15:27:23.710Z,6.28
2023-01-07T15:29:55.830Z,8.00
2023-01-07T15:32:33.765Z,6.50
2023-01-07T15:34:59.146Z,9.52
2023-01-07T15:37:22.923Z,6.93
2023-01-07T15:39:52.108Z,7.57
2023-01-07T15:42:18.897Z,8.52
2023-01-07T15:44:44.198Z,7.57
2023-01-07T15:47:32.222Z,9.93
2023-01-07T15:49:55.871Z,7.50
2023-01-07T15:52:27.468Z,14.77
2023-01-07T15:54:51.086Z,11.50
2023-01-07T15:57:21.993Z,10.15
2023-01-07T15:59:49.113Z,12.57
2023-01-07T16:02:24.305Z,7.40
2023-01-07T16:04:49.517Z,11.82
2023-01-07T16:07:29.204Z,8.88
2023-01-07T16:09:53.391Z,11.18
2023-01-07T16:12:39.403Z,9.60
2023-01-07T16:15:20.223Z,10.10
2023-01-07T16:17:52.184Z,12.43
2023-01-07T16:20:23.970Z,10.30
2023-01-07T16:22:49.107Z,10.45
2023-01-07T16:25:21.538Z,13.48
2023-01-07T16:27:45.397Z,9.95
2023-01-07T16:30:15.955Z,11.38
2023-01-07T16:32:40.134Z,13.88
2023-01-07T16:35:09.086Z,11.60
2023-01-07T16:37:33.681Z,15.15
2023-01-07T16:39:58.785Z,15.80
2023-01-07T16:42:27.444Z,14.52
2023-01-07T16:45:06.955Z,14.80
2023-01-07T16:47:32.766Z,14.70
2023-01-07T16:49:58.283Z,16.50
2023-01-07T16:52:23.226Z,16.30
2023-01-07T16:54:47.785Z,12.05
2023-01-07T16:57:33.799Z,17.27
2023-01-07T16:59:59.399Z,14.82
2023-01-07T17:02:32.229Z,12.88
2023-01-07T17:04:57.630Z,11.45
2023-01-07T17:07:26.374Z,10.27
2023-01-07T17:09:53.244Z,10.35
2023-01-07T17:12:31.274Z,12.48
2023-01-07T17:14:54.840Z,14.57
2023-01-07T17:17:36.007Z,8.52
2023-01-07T17:20:16.018Z,6.05
2023-01-07T17:22:40.650Z,6.50
2023-01-07T17:25:08.148Z,5.88
2023-01-07T17:27:33.506Z,6.13
2023-01-07T17:29:58.112Z,6.65
2023-01-07T17:32:22.746Z,6.90
2023-01-07T17:34:46.313Z,5.63
2023-01-07T17:37:16.079Z,6.97
2023-01-07T17:39:39.687Z,5.40
2023-01-07T17:42:20.772Z,7.10
2023-01-07T17:44:45.842Z,4.38
2023-01-07T17:47:12.255Z,4.38
2023-01-07T17:49:35.829Z,6.00
2023-01-07T17:51:59.403Z,5.28
2023-01-07T17:54:26.158Z,4.45
2023-01-07T17:56:50.357Z,4.63
2023-01-07T17:59:17.075Z,4.95
2023-01-07T18:01:42.276Z,5.18
2023-01-07T18:04:06.070Z,5.43
2023-01-07T18:06:33.462Z,8.77
2023-01-07T18:08:57.730Z,7.65
2023-01-07T18:11:41.073Z,7.65
2023-01-07T18:14:04.819Z,14.75
2023-01-07T18:16:28.947Z,7.38
2023-01-07T18:18:54.125Z,8.35
2023-01-07T18:21:17.649Z,5.90
2023-01-07T18:23:41.526Z,6.00
2023-01-07T18:26:06.777Z,4.80
2023-01-07T18:28:31.299Z,4.80
2023-01-07T18:30:54.846Z,5.50
2023-01-07T18:33:18.484Z,4.70
2023-01-07T18:35:43.823Z,5.47
2023-01-07T18:38:11.395Z,5.45
2023-01-07T18:40:35.041Z,7.03
2023-01-07T18:43:00.920Z,5.93
2023-01-07T18:45:24.855Z,5.38
2023-01-07T18:47:48.555Z,6.28
2023-01-07T18:50:12.119Z,7.20
2023-01-07T18:52:39.326Z,7.25
2023-01-07T18:55:02.857Z,9.60
2023-01-07T18:57:27.280Z,8.20
2023-01-07T18:59:50.835Z,6.55
2023-01-07T19:02:18.144Z,7.05
2023-01-07T19:04:41.641Z,10.93
2023-01-07T19:07:05.726Z,10.43
2023-01-07T19:09:31.964Z,5.55
2023-01-07T19:11:56.233Z,8.77
2023-01-07T19:14:19.877Z,6.45
2023-01-07T19:16:44.048Z,7.80
2023-01-07T19:19:07.681Z,6.60
2023-01-07T19:21:32.504Z,7.75
2023-01-07T19:23:56.102Z,10.77
2023-01-07T19:26:21.188Z,8.70
2023-01-07T19:28:44.784Z,8.07
2023-01-07T19:31:09.834Z,8.02
2023-01-07T19:33:33.389Z,6.90
2023-01-07T19:36:03.805Z,5.18
2023-01-07T19:38:27.799Z,7.03
2023-01-07T19:40:51.736Z,5.65
2023-01-07T19:43:16.833Z,6.28
2023-01-07T19:45:40.614Z,9.07
2023-01-07T19:48:04.259Z,6.05
2023-01-07T19:50:28.039Z,7.68
2023-01-07T19:52:51.639Z,5.53
2023-01-07T19:55:15.658Z,9.38
2023-01-07T19:57:39.230Z,4.68
2023-01-07T20:00:04.386Z,6.55
2023-01-07T20:02:28.441Z,7.68
2023-01-07T20:04:52.054Z,6.30
2023-01-07T20:07:15.615Z,6.07
2023-01-07T20:09:40.580Z,10.02
2023-01-07T20:12:04.147Z,8.48
2023-01-07T20:14:27.700Z,6.72
2023-01-07T20:16:52.759Z,6.10
2023-01-07T20:19:16.507Z,6.80
2023-01-07T20:21:40.300Z,8.82
2023-01-07T20:24:06.266Z,7.18
2023-01-07T20:26:32.607Z,11.00
2023-01-07T20:28:56.486Z,11.20
2023-01-07T20:31:22.200Z,8.43
2023-01-07T20:33:47.307Z,9.25
2023-01-07T20:36:13.567Z,12.15
2023-01-07T20:38:37.671Z,9.18
2023-01-07T20:41:01.478Z,6.68
2023-01-07T20:43:25.887Z,8.25
2023-01-07T20:45:49.549Z,8.02
2023-01-07T20:48:15.402Z,8.52
2023-01-07T20:50:41.697Z,8.52
2023-01-07T20:53:05.261Z,6.43
2023-01-07T20:55:28.868Z,10.23
2023-01-07T20:57:52.470Z,7.45
2023-01-07T21:00:17.144Z,7.70
2023-01-07T21:02:40.856Z,7.22
2023-01-07T21:05:04.940Z,6.88
2023-01-07T21:07:30.360Z,8.02
2023-01-07T21:09:53.880Z,9.18
2023-01-07T21:12:17.547Z,8.75
2023-01-07T21:14:41.071Z,10.93
2023-01-07T21:17:04.935Z,11.20
2023-01-07T21:19:28.512Z,19.00
2023-01-07T21:21:52.096Z,10.48
2023-01-07T21:24:17.559Z,10.52
2023-01-07T21:26:41.310Z,9.35
2023-01-07T21:29:05.062Z,8.73
2023-01-07T21:31:29.165Z,13.70
2023-01-07T21:33:56.507Z,10.18
2023-01-07T21:36:20.772Z,9.50
2023-01-07T21:38:45.299Z,8.95
2023-01-07T21:41:13.422Z,13.23
2023-01-07T21:43:37.047Z,8.38
2023-01-07T21:46:01.166Z,12.15
2023-01-07T21:48:24.746Z,9.80
2023-01-07T21:50:48.301Z,9.73
2023-01-07T21:53:11.904Z,12.27
2023-01-07T21:55:38.822Z,9.82
2023-01-07T21:58:03.786Z,12.38
2023-01-07T22:00:27.361Z,8.93
2023-01-07T22:02:50.914Z,9.55
2023-01-07T22:05:14.532Z,11.43
2023-01-07T22:07:38.119Z,10.48
2023-01-07T22:10:02.437Z,9.40
2023-01-07T22:12:26.036Z,8.68
2023-01-07T22:14:51.010Z,7.70
2023-01-07T22:17:15.116Z,9.60
2023-01-07T22:19:38.715Z,10.90
2023-01-07T22:22:02.521Z,7.90
2023-01-07T22:24:26.098Z,8.45
2023-01-07T22:26:49.723Z,8.55
2023-01-07T22:29:14.768Z,8.80
2023-01-07T22:31:40.214Z,7.65
2023-01-07T22:34:04.398Z,7.43
2023-01-07T22:36:33.795Z,7.85
2023-01-07T22:39:02.503Z,7.95
2023-01-07T22:41:27.302Z,8.55
2023-01-07T22:43:51.871Z,7.80
2023-01-07T22:46:22.453Z,9.68
2023-01-07T22:48:47.652Z,8.25
2023-01-07T22:51:15.613Z,7.95
2023-01-07T22:53:39.300Z,9.35
2023-01-07T22:56:04.768Z,9.57
2023-01-07T22:58:28.426Z,9.18
2023-01-07T23:01:13.233Z,9.32
2023-01-07T23:03:36.946Z,9.48
2023-01-07T23:06:02.089Z,8.27
2023-01-07T23:08:25.885Z,10.63
2023-01-07T23:10:49.509Z,11.02
2023-01-07T23:13:13.327Z,8.52
2023-01-07T23:15:38.246Z,9.77
2023-01-07T23:18:01.852Z,9.63
2023-01-07T23:20:25.456Z,10.25
2023-01-07T23:22:50.434Z,9.32
2023-01-07T23:25:14.010Z,9.80
2023-01-07T23:27:39.356Z,9.07
2023-01-07T23:30:03.217Z,11.00
2023-01-07T23:32:26.954Z,10.10
2023-01-07T23:34:50.489Z,11.15
2023-01-07T23:37:14.102Z,9.60
2023-01-07T23:39:39.043Z,8.45
2023-01-07T23:42:02.665Z,10.38
2023-01-07T23:44:26.238Z,8.32
2023-01-07T23:46:49.904Z,8.55
2023-01-07T23:49:13.452Z,8.30
2023-01-07T23:51:37.113Z,9.23
2023-01-07T23:54:00.773Z,8.15
2023-01-07T23:56:25.810Z,8.80
2023-01-07T23:58:50.419Z,8.38
